Flight Track Log - Related Links

Times and Time Zones

All times are in EST time to prevent confusion due to time zone crossing. See the UCA3598 flight status page for this flight to view local times or setup timezone preferences in your user account.

Time Position Orientation Groundspeed Altitude Reporting Facility
EST Latitude Longitude Course Direction KTS MPH feet Rate Location/Type
Mon 11:55:30 PM 39.0389 -77.4383 North 156 180 3,700  Level Washington Center
Mon 11:56:31 PM 39.0850 -77.4233 14° North 162 186 5,200 1,377 Climbing Washington Center
Mon 11:57:32 PM 39.1331 -77.4139 North 162 186 6,500 1,240 Climbing Washington Center
Mon 11:58:00 PM 39.4022 -77.2624 North  Level Estimated
Mon 11:58:32 PM 39.1811 -77.4097 North 167 192 7,700  Level Washington Center
Mon 11:59:00 PM 39.4780 -77.2293 North  Level Estimated
Mon 11:59:32 PM 39.2289 -77.4164 354° North 167 192 9,400  Level Washington Center
Tue 12:00:29 AM 39.2767 -77.4203 356° North 167 192 10,400 1,000 Climbing Washington Center
Tue 12:01:32 AM 39.3267 -77.4242 357° North 167 192 11,400 878 Climbing Washington Center
Tue 12:02:32 AM 39.3767 -77.4306 354° North 172 198 12,200 1,000 Climbing Washington Center
Tue 12:04:26 AM 39.4753 -77.4256 North 198 228 14,300 1,138 Climbing New York Center
Tue 12:05:26 AM 39.5314 -77.3931 24° Northeast 205 236 15,500 1,150 Climbing New York Center
Tue 12:06:26 AM 39.5939 -77.3586 23° Northeast 212 244 16,600 1,050 Climbing New York Center
Tue 12:07:26 AM 39.6539 -77.3264 22° Northeast 225 259 17,600 900 Climbing New York Center
Tue 12:08:26 AM 39.7161 -77.2944 22° Northeast 231 266 18,400 700 Climbing New York Center
Tue 12:09:26 AM 39.7786 -77.2622 22° Northeast 238 274 19,000 298 Climbing New York Center
Tue 12:10:27 AM 39.8469 -77.2308 19° North 251 289 19,000  Level New York Center
Tue 12:11:26 AM 39.9242 -77.1919 21° North 276 318 19,000  Level New York Center
Tue 12:12:26 AM 40.0014 -77.1531 21° North 281 323 19,000  Level New York Center
Tue 12:13:26 AM 40.0681 -77.1156 23° Northeast 287 330 19,000  Level New York Center
Tue 12:14:26 AM 40.1492 -77.0769 20° North 277 319 19,000  Level New York Center
Tue 12:15:26 AM 40.2158 -77.0419 22° Northeast 277 319 19,000  Level New York Center
Tue 12:16:26 AM 40.2950 -77.0031 21° North 277 319 19,000  Level New York Center
Tue 12:17:26 AM 40.3614 -76.9681 22° Northeast 277 319 19,000  Level New York Center
Tue 12:18:26 AM 40.4428 -76.9264 21° North 277 319 19,000  Level New York Center
Tue 12:19:26 AM 40.5072 -76.8911 23° Northeast 282 325 19,000  Level New York Center
Tue 12:20:29 AM 40.5906 -76.8492 21° North 282 325 19,000  Level New York Center
Tue 12:21:29 AM 40.6656 -76.8094 22° Northeast 289 333 19,000  Level New York Center
Tue 12:22:29 AM 40.7406 -76.7694 22° Northeast 284 327 19,000  Level New York Center
Tue 12:23:29 AM 40.8111 -76.7344 21° North 279 321 19,000  Level New York Center
Tue 12:24:29 AM 40.8858 -76.6972 21° North 279 321 19,000  Level New York Center
Tue 12:25:29 AM 40.9567 -76.6592 22° Northeast 279 321 19,000  Level New York Center
Tue 12:26:29 AM 41.0275 -76.6186 23° Northeast 274 315 19,000  Level New York Center
Tue 12:27:29 AM 41.1003 -76.5781 23° Northeast 279 321 19,000  Level New York Center
Tue 12:28:29 AM 41.1644 -76.5450 21° North 279 321 19,000  Level New York Center
Tue 12:29:29 AM 41.2350 -76.5069 22° Northeast 279 321 19,000  Level New York Center
Tue 12:30:29 AM 41.3161 -76.4642 22° Northeast 279 321 19,000  Level New York Center
Tue 12:31:29 AM 41.3911 -76.4233 22° Northeast 279 321 19,000 -100 Level New York Center
Tue 12:32:29 AM 41.4658 -76.3853 21° North 279 321 18,800 -650 Descending New York Center
Tue 12:33:29 AM 41.5294 -76.3131 40° Northeast 308 354 17,700 -1,150 Descending New York Center
Tue 12:34:29 AM 41.5975 -76.2411 38° Northeast 319 367 16,500 -1,450 Descending New York Center
Tue 12:35:29 AM 41.6694 -76.1664 38° Northeast 302 348 14,800 -1,800 Descending New York Center
Tue 12:36:29 AM 41.7308 -76.0992 39° Northeast 291 335 12,900 -1,900 Descending New York Center
Tue 12:37:29 AM 41.7925 -76.0289 40° Northeast 291 335 11,000 -1,950 Descending New York Center
Tue 12:38:29 AM 41.8469 -75.9747 37° Northeast 286 329 9,000 -1,950 Descending New York Center
Tue 12:39:29 AM 41.9014 -75.9178 38° Northeast 262 302 7,100 -2,100 Descending New York Center
Tue 12:40:29 AM 41.9603 -75.8525 39° Northeast 252 290 4,800 -1,300 Descending New York Center
Tue 12:41:29 AM 42.0119 -75.8147 29° Northeast 231 266 4,500 -150 Descending New York Center
Tue 12:42:29 AM 42.0478 -75.8508 323° Northwest 164 189 4,500 -200 Level New York Center
Tue 12:43:29 AM 42.0961 -75.8883 330° Northwest 172 198 4,100 -600 Descending New York Center
Tue 12:44:29 AM 42.1306 -75.9161 329° Northwest 172 198 3,300 -700 Descending New York Center
Tue 12:45:29 AM 42.1567 -75.9375 329° Northwest 138 159 2,700 -650 Descending New York Center
Tue 12:46:29 AM 42.1806 -75.9619 323° Northwest 114 131 2,000 -400 Descending New York Center
Tue 12:47:29 AM 42.2047 -75.9806 330° Northwest 114 131 1,900 -100 Descending New York Center

Login

Don't have an account? Register now (free) for customized features, flight alerts, and more!